Time;durP1;ratioP1;P1;durP2;ratioP2;P2;SDS_P1;SDS_P2;PMS_P1;PMS_P2;Temp;Humidity;BMP_temperature;BMP_pressure;BME280_temperature;BME280_humidity;BME280_pressure;Samples;Min_cycle;Max_cycle;Signal;HPM_P1;HPM_P2
2021/05/08 00:02:24;;;;;;;4.67;3.05;;;;;;;7.02;64.80;98420.36;1776671;80;21164;-73
2021/05/08 00:04:50;;;;;;;3.98;2.90;;;;;;;7.04;64.68;98422.12;1735846;80;21172;-73
2021/05/08 00:07:16;;;;;;;3.87;3.02;;;;;;;7.05;64.33;98417.48;1768410;80;21167;-75
2021/05/08 00:09:42;;;;;;;3.40;2.95;;;;;;;7.07;64.45;98430.03;1776658;80;21148;-72
2021/05/08 00:12:08;;;;;;;3.92;3.12;;;;;;;7.10;64.25;98450.88;1778289;80;21553;-74
2021/05/08 00:14:34;;;;;;;3.90;3.27;;;;;;;7.09;64.32;98422.30;1746442;80;21599;-71
2021/05/08 00:17:00;;;;;;;4.15;3.08;;;;;;;7.09;64.29;98447.95;1769255;80;21179;-72
2021/05/08 00:19:26;;;;;;;4.45;3.30;;;;;;;7.11;64.29;98451.83;1773314;80;21203;-73
2021/05/08 00:21:52;;;;;;;3.40;2.77;;;;;;;7.14;63.94;98452.23;1774742;80;21823;-74
2021/05/08 00:24:19;;;;;;;5.65;3.35;;;;;;;7.14;63.96;98448.95;1767586;80;21186;-74
2021/05/08 00:26:45;;;;;;;4.47;3.50;;;;;;;7.13;64.02;98462.84;1769000;80;21188;-73
2021/05/08 00:29:11;;;;;;;3.37;3.08;;;;;;;7.13;63.99;98464.96;1773508;80;21127;-74
2021/05/08 00:31:37;;;;;;;3.85;3.00;;;;;;;7.14;63.59;98473.83;1773849;80;21144;-73
2021/05/08 00:34:03;;;;;;;4.03;3.08;;;;;;;7.10;63.21;98479.22;1769603;80;21176;-76
2021/05/08 00:36:29;;;;;;;3.50;3.17;;;;;;;7.08;63.16;98478.23;1772449;80;21330;-72
2021/05/08 00:38:55;;;;;;;3.50;2.85;;;;;;;7.02;63.02;98478.41;1775340;80;21174;-75
2021/05/08 00:41:21;;;;;;;3.05;2.70;;;;;;;7.02;63.18;98486.51;1736113;82;21175;-73
2021/05/08 00:43:56;;;;;;;3.85;2.77;;;;;;;7.03;63.03;98515.63;1696840;83;21212;-75
2021/05/08 00:46:23;;;;;;;2.75;2.25;;;;;;;7.00;63.16;98488.80;1700872;83;21149;-74
2021/05/08 00:48:49;;;;;;;2.50;2.30;;;;;;;6.96;62.89;98506.92;1671892;83;21213;-70
2021/05/08 00:51:15;;;;;;;2.25;2.05;;;;;;;6.93;63.02;98500.94;1761905;80;21156;-75
2021/05/08 00:53:41;;;;;;;3.35;2.27;;;;;;;6.92;62.98;98526.36;1756806;80;21481;-75
2021/05/08 00:56:07;;;;;;;3.02;2.67;;;;;;;6.87;62.97;98492.42;1763966;80;21164;-73
2021/05/08 00:58:33;;;;;;;2.65;2.45;;;;;;;6.83;63.15;98508.38;1764606;80;21828;-77
2021/05/08 01:01:00;;;;;;;3.10;2.80;;;;;;;6.77;63.16;98526.09;1755499;80;21160;-74
2021/05/08 01:03:26;;;;;;;3.80;3.12;;;;;;;6.72;63.41;98519.69;1762941;80;21745;-72
2021/05/08 01:05:52;;;;;;;3.60;3.30;;;;;;;6.65;63.58;98541.40;1767000;80;21629;-71
2021/05/08 01:08:18;;;;;;;4.03;3.55;;;;;;;6.58;64.02;98538.66;1763980;80;21338;-72
2021/05/08 01:10:44;;;;;;;4.30;3.90;;;;;;;6.58;64.12;98552.16;1764257;80;21165;-75
2021/05/08 01:13:10;;;;;;;4.28;3.87;;;;;;;6.59;64.46;98547.53;1764956;80;21211;-74
2021/05/08 01:15:36;;;;;;;4.83;4.00;;;;;;;6.62;64.54;98544.08;1752803;80;21494;-78
2021/05/08 01:18:02;;;;;;;4.05;3.60;;;;;;;6.62;64.44;98558.34;1763032;80;21896;-75
2021/05/08 01:20:28;;;;;;;4.78;4.20;;;;;;;6.63;64.59;98559.14;1758403;80;21153;-72
2021/05/08 01:22:54;;;;;;;5.03;4.50;;;;;;;6.61;64.72;98559.50;1760229;80;21629;-71
2021/05/08 01:25:23;;;;;;;5.30;4.80;;;;;;;6.60;65.01;98559.86;1758842;80;21199;-77
2021/05/08 01:27:53;;;;;;;4.95;4.37;;;;;;;6.54;65.38;98558.66;1758847;80;21179;-76
2021/05/08 01:30:22;;;;;;;5.28;4.60;;;;;;;6.52;65.41;98563.09;1763822;80;21183;-72
2021/05/08 01:32:48;;;;;;;6.30;4.80;;;;;;;6.48;65.58;98564.98;1763110;80;21235;-71
2021/05/08 01:35:14;;;;;;;5.30;4.78;;;;;;;6.49;65.48;98564.39;1767443;80;21717;-75
2021/05/08 01:37:41;;;;;;;5.53;4.92;;;;;;;6.51;65.61;98577.72;1765024;80;21303;-75
2021/05/08 01:40:11;;;;;;;7.08;4.72;;;;;;;6.52;65.52;98564.45;1765661;80;21147;-73
2021/05/08 01:42:36;;;;;;;5.28;4.50;;;;;;;6.54;65.40;98578.89;1757593;80;21170;-74
2021/05/08 01:45:18;;;;;;;6.25;4.85;;;;;;;6.52;65.37;98586.58;1733247;80;21300;-76
2021/05/08 01:47:44;;;;;;;5.80;4.87;;;;;;;6.53;65.51;98582.75;1727924;82;21188;-73
2021/05/08 01:50:12;;;;;;;6.53;5.03;;;;;;;6.55;65.57;98586.62;1770429;80;21185;-77
2021/05/08 01:52:38;;;;;;;7.35;4.97;;;;;;;6.57;65.38;98584.89;1766774;80;21200;-72
2021/05/08 01:55:06;;;;;;;5.17;4.47;;;;;;;6.55;65.47;98590.67;1765335;80;21168;-72
2021/05/08 01:57:43;;;;;;;5.42;4.80;;;;;;;6.54;65.54;98591.80;1770007;80;21201;-71
2021/05/08 02:00:16;;;;;;;5.80;4.70;;;;;;;6.56;65.71;98591.45;1767625;80;21145;-75
2021/05/08 02:02:42;;;;;;;5.55;4.60;;;;;;;6.43;65.55;98575.52;1763602;80;21193;-77
2021/05/08 02:05:09;;;;;;;8.95;5.22;;;;;;;6.52;65.46;98607.61;1768007;80;21334;-71
2021/05/08 02:07:35;;;;;;;6.33;4.80;;;;;;;6.51;65.44;98610.66;1768882;80;21174;-74
2021/05/08 02:10:03;;;;;;;5.28;4.40;;;;;;;6.48;65.32;98604.09;1767164;80;21192;-73
2021/05/08 02:12:33;;;;;;;6.37;4.50;;;;;;;6.47;65.32;98595.80;1766176;80;21212;-73
2021/05/08 02:14:59;;;;;;;5.65;5.00;;;;;;;6.48;65.27;98614.87;1773217;80;21172;-77
2021/05/08 02:17:25;;;;;;;6.92;4.80;;;;;;;6.48;65.06;98618.92;1768013;80;21163;-74
2021/05/08 02:19:51;;;;;;;7.87;4.95;;;;;;;6.48;65.16;98614.11;1769064;80;21172;-74
2021/05/08 02:22:18;;;;;;;6.72;4.80;;;;;;;6.46;65.15;98622.56;1773052;80;22285;-71
2021/05/08 02:24:44;;;;;;;6.40;4.80;;;;;;;6.41;65.40;98631.78;1771092;80;21174;-75
2021/05/08 02:27:10;;;;;;;6.90;5.03;;;;;;;6.34;65.31;98617.45;1766858;80;21308;-73
2021/05/08 02:29:36;;;;;;;5.15;4.53;;;;;;;6.28;65.43;98615.66;1768720;80;21180;-76
2021/05/08 02:32:03;;;;;;;5.80;4.55;;;;;;;6.25;65.42;98640.67;1768955;80;21144;-74
2021/05/08 02:34:29;;;;;;;7.35;4.65;;;;;;;6.25;65.53;98620.45;1766146;80;21141;-73
2021/05/08 02:36:55;;;;;;;5.60;4.25;;;;;;;6.26;65.54;98624.69;1772764;80;21195;-74
2021/05/08 02:39:21;;;;;;;4.37;3.90;;;;;;;6.27;65.68;98607.92;1762238;80;21720;-74
2021/05/08 02:41:47;;;;;;;5.72;4.03;;;;;;;6.30;65.48;98612.58;1774759;80;21152;-77
2021/05/08 02:44:13;;;;;;;5.35;4.40;;;;;;;6.33;65.60;98626.11;1763047;80;21303;-72
2021/05/08 02:46:39;;;;;;;4.85;4.35;;;;;;;6.34;65.27;98625.54;1768060;80;21321;-72
2021/05/08 02:49:05;;;;;;;5.78;4.25;;;;;;;6.36;65.15;98622.67;1760434;80;21260;-74
2021/05/08 02:51:31;;;;;;;4.58;4.00;;;;;;;6.38;65.05;98629.03;1754940;81;21500;-72
2021/05/08 02:53:57;;;;;;;4.72;3.95;;;;;;;6.41;64.99;98629.09;1751745;81;21215;-71
2021/05/08 02:56:23;;;;;;;4.67;4.08;;;;;;;6.42;64.91;98628.51;1755926;81;21143;-72
2021/05/08 02:58:49;;;;;;;5.05;3.70;;;;;;;6.31;64.90;98623.01;1751706;81;21323;-75
2021/05/08 03:01:15;;;;;;;4.67;4.05;;;;;;;6.11;65.12;98630.51;1752682;81;21331;-74
2021/05/08 03:03:41;;;;;;;4.03;3.30;;;;;;;5.94;65.48;98628.37;1751044;81;21176;-76
2021/05/08 03:06:07;;;;;;;3.92;3.47;;;;;;;5.84;65.64;98641.11;1756754;81;21665;-74
2021/05/08 03:08:33;;;;;;;4.90;3.60;;;;;;;5.77;65.70;98653.94;1754116;81;21673;-74
2021/05/08 03:10:59;;;;;;;4.30;3.60;;;;;;;5.85;65.77;98638.05;1758727;81;21447;-75
2021/05/08 03:13:25;;;;;;;4.70;3.80;;;;;;;5.96;65.64;98647.08;1763446;81;21350;-72
2021/05/08 03:15:51;;;;;;;4.72;3.52;;;;;;;6.08;65.42;98644.70;1750165;81;21181;-73
2021/05/08 03:18:17;;;;;;;6.10;4.30;;;;;;;6.15;65.29;98656.92;1748771;81;21165;-76
2021/05/08 03:20:43;;;;;;;6.00;4.30;;;;;;;6.23;65.20;98646.42;1755845;81;21685;-75
2021/05/08 03:23:09;;;;;;;5.72;4.40;;;;;;;6.30;65.03;98647.08;1747495;81;21137;-71
2021/05/08 03:25:35;;;;;;;4.92;4.17;;;;;;;6.36;64.93;98660.44;1760833;81;21169;-75
2021/05/08 03:28:02;;;;;;;4.83;4.33;;;;;;;6.42;64.86;98658.18;1751893;81;21154;-76
2021/05/08 03:30:28;;;;;;;5.85;5.25;;;;;;;6.46;64.97;98667.06;1755806;81;21180;-73
2021/05/08 03:32:54;;;;;;;6.05;4.70;;;;;;;6.51;65.03;98661.34;1755800;81;21270;-76
2021/05/08 03:35:20;;;;;;;8.48;5.90;;;;;;;6.55;65.07;98668.91;1753886;81;21164;-73
2021/05/08 03:37:46;;;;;;;8.05;6.72;;;;;;;6.58;64.94;98681.66;1754349;81;21314;-72
2021/05/08 03:40:12;;;;;;;7.25;5.75;;;;;;;6.57;65.06;98675.27;1753211;81;21207;-75
2021/05/08 03:42:38;;;;;;;6.87;5.70;;;;;;;6.56;65.18;98684.52;1761797;81;21145;-75
2021/05/08 03:45:05;;;;;;;8.58;6.20;;;;;;;6.57;65.00;98692.81;1753441;81;21318;-73
2021/05/08 03:47:31;;;;;;;9.33;6.90;;;;;;;6.56;65.07;98693.39;1762098;81;21193;-77
2021/05/08 03:49:57;;;;;;;8.38;6.37;;;;;;;6.61;65.23;98694.41;1742619;81;21318;-77
2021/05/08 03:52:24;;;;;;;8.53;6.25;;;;;;;6.65;65.04;98705.23;1738179;82;21154;-73
2021/05/08 03:54:50;;;;;;;7.47;5.90;;;;;;;6.63;65.08;98713.70;1742209;82;21125;-76
2021/05/08 03:57:16;;;;;;;8.57;6.17;;;;;;;6.61;65.22;98704.43;1738868;82;21167;-75
2021/05/08 03:59:42;;;;;;;8.43;5.72;;;;;;;6.63;65.26;98704.84;1739555;82;21179;-72
2021/05/08 04:02:08;;;;;;;7.33;6.35;;;;;;;6.64;65.26;98709.08;1740379;82;21170;-73
2021/05/08 04:04:34;;;;;;;7.95;6.12;;;;;;;6.68;65.16;98712.58;1742025;82;21811;-74
2021/05/08 04:07:00;;;;;;;6.50;5.80;;;;;;;6.69;65.14;98720.89;1741763;82;21294;-72
2021/05/08 04:09:26;;;;;;;8.28;6.08;;;;;;;6.71;65.30;98720.51;1736344;82;21353;-75
2021/05/08 04:11:52;;;;;;;7.80;6.20;;;;;;;6.70;65.02;98718.39;1739064;82;21310;-73
2021/05/08 04:14:18;;;;;;;7.35;6.50;;;;;;;6.70;65.13;98735.92;1739136;82;21871;-74
2021/05/08 04:16:44;;;;;;;7.60;5.78;;;;;;;6.69;65.12;98741.71;1742975;82;21167;-76
2021/05/08 04:19:10;;;;;;;8.18;5.85;;;;;;;6.70;65.17;98744.02;1742883;82;21725;-72
2021/05/08 04:21:36;;;;;;;7.62;5.95;;;;;;;6.65;65.21;98747.05;1739026;82;21330;-76
2021/05/08 04:24:03;;;;;;;7.08;6.05;;;;;;;6.66;65.37;98750.74;1739073;82;21303;-74
2021/05/08 04:26:30;;;;;;;7.83;6.50;;;;;;;6.68;65.46;98746.31;1743133;82;21661;-71
2021/05/08 04:28:56;;;;;;;7.40;6.40;;;;;;;6.69;65.42;98757.33;1738725;81;21390;-76
2021/05/08 04:31:22;;;;;;;9.10;6.53;;;;;;;6.69;65.55;98754.62;1739549;82;21307;-71
2021/05/08 04:33:48;;;;;;;7.78;6.65;;;;;;;6.74;65.55;98763.75;1744325;82;21135;-75
2021/05/08 04:36:14;;;;;;;9.63;7.03;;;;;;;6.75;65.46;98761.81;1737930;82;21199;-73
2021/05/08 04:38:40;;;;;;;8.13;6.80;;;;;;;6.70;65.72;98771.59;1737738;82;21168;-76
2021/05/08 04:41:06;;;;;;;11.18;8.68;;;;;;;6.75;65.94;98773.96;1738251;82;21197;-75
2021/05/08 04:43:33;;;;;;;9.65;8.15;;;;;;;6.78;65.81;98775.92;1734947;82;21318;-74
2021/05/08 04:45:59;;;;;;;10.90;8.08;;;;;;;6.77;65.72;98773.03;1739164;82;21190;-73
2021/05/08 04:48:25;;;;;;;10.65;8.20;;;;;;;6.73;65.84;98774.90;1737569;82;21307;-73
2021/05/08 04:50:52;;;;;;;11.10;7.80;;;;;;;6.71;65.98;98779.33;1743064;82;21574;-78
2021/05/08 04:53:18;;;;;;;13.58;9.70;;;;;;;6.67;65.90;98785.24;1746457;82;21467;-73
2021/05/08 04:55:46;;;;;;;9.80;8.23;;;;;;;6.57;66.21;98792.06;1746706;82;21153;-77
2021/05/08 04:58:13;;;;;;;9.38;8.38;;;;;;;6.56;66.58;98789.74;1743660;82;21178;-73
2021/05/08 05:00:38;;;;;;;10.32;8.40;;;;;;;6.56;66.55;98789.74;1745382;82;21150;-74
2021/05/08 05:03:05;;;;;;;11.08;8.55;;;;;;;6.55;66.62;98797.64;1745194;82;21520;-78
2021/05/08 05:05:31;;;;;;;12.65;8.60;;;;;;;6.52;66.90;98805.09;1739244;82;21145;-77
2021/05/08 05:07:56;;;;;;;10.75;9.05;;;;;;;6.52;67.22;98804.55;1745725;82;21528;-74
2021/05/08 05:10:22;;;;;;;10.63;8.70;;;;;;;6.52;67.30;98809.14;1746655;82;21282;-73
2021/05/08 05:12:49;;;;;;;10.98;8.63;;;;;;;6.49;67.43;98810.65;1746217;82;21170;-72
2021/05/08 05:15:19;;;;;;;10.50;8.85;;;;;;;6.47;67.67;98811.61;1742713;82;21194;-72
2021/05/08 05:17:45;;;;;;;11.08;7.97;;;;;;;6.41;68.03;98821.14;1740615;82;21197;-71
2021/05/08 05:20:12;;;;;;;9.63;7.62;;;;;;;6.38;67.91;98816.48;1745762;82;21185;-75
2021/05/08 05:22:38;;;;;;;8.98;6.47;;;;;;;6.35;68.04;98826.08;1745599;82;21142;-75
2021/05/08 05:25:04;;;;;;;7.80;6.30;;;;;;;6.38;67.80;98829.97;1740284;82;21168;-71
2021/05/08 05:27:30;;;;;;;8.28;6.87;;;;;;;6.45;67.47;98838.94;1746511;82;21141;-76
2021/05/08 05:29:56;;;;;;;7.97;6.72;;;;;;;6.49;67.57;98838.98;1743183;82;21197;-73
2021/05/08 05:32:23;;;;;;;7.15;6.37;;;;;;;6.65;67.22;98846.89;1740169;82;21140;-74
2021/05/08 05:34:49;;;;;;;6.97;5.83;;;;;;;6.72;66.91;98857.02;1744807;82;21193;-72
2021/05/08 05:37:15;;;;;;;7.85;6.22;;;;;;;6.74;66.12;98865.50;1747673;82;21168;-78
2021/05/08 05:39:41;;;;;;;6.75;5.80;;;;;;;6.68;66.09;98871.80;1738754;82;21732;-74
2021/05/08 05:42:07;;;;;;;8.40;6.05;;;;;;;6.70;66.33;98870.86;1745729;82;21177;-71
2021/05/08 05:44:33;;;;;;;6.42;5.37;;;;;;;6.79;65.95;98876.77;1740185;82;21314;-73
2021/05/08 05:46:59;;;;;;;6.85;6.12;;;;;;;6.86;65.87;98874.72;1741934;82;21814;-75
2021/05/08 05:49:25;;;;;;;7.22;5.65;;;;;;;6.97;65.67;98880.25;1733562;81;21169;-73
2021/05/08 05:51:51;;;;;;;5.80;5.25;;;;;;;7.02;65.16;98891.50;1715491;83;21329;-72
2021/05/08 05:54:17;;;;;;;6.25;5.42;;;;;;;6.99;64.93;98887.42;1713430;83;21204;-72
2021/05/08 05:56:43;;;;;;;6.15;5.12;;;;;;;6.99;64.83;98896.87;1717485;83;21759;-74
2021/05/08 05:59:09;;;;;;;6.58;5.42;;;;;;;6.98;64.77;98899.34;1716089;83;21180;-71
2021/05/08 06:01:35;;;;;;;6.40;5.03;;;;;;;7.08;64.77;98902.17;1714637;83;21650;-76
2021/05/08 06:04:02;;;;;;;5.97;4.90;;;;;;;7.17;64.31;98903.23;1717479;83;21538;-75
2021/05/08 06:06:28;;;;;;;6.92;5.40;;;;;;;7.25;63.88;98901.39;1716133;83;21183;-70
2021/05/08 06:08:54;;;;;;;5.78;5.25;;;;;;;7.28;63.86;98904.70;1714414;83;21172;-73
2021/05/08 06:11:20;;;;;;;6.00;5.40;;;;;;;7.27;63.43;98905.28;1707730;82;21204;-75
2021/05/08 06:13:46;;;;;;;6.85;5.05;;;;;;;7.23;63.47;98911.23;1715513;83;21184;-78
2021/05/08 06:16:12;;;;;;;6.37;5.33;;;;;;;7.25;63.51;98902.16;1715045;83;21320;-73
2021/05/08 06:18:38;;;;;;;5.75;5.08;;;;;;;7.29;63.42;98908.39;1721621;83;21371;-72
2021/05/08 06:21:04;;;;;;;7.05;5.45;;;;;;;7.38;63.44;98918.91;1717404;83;21172;-74
2021/05/08 06:23:30;;;;;;;6.45;5.25;;;;;;;7.39;63.22;98951.52;1716428;83;21148;-74
2021/05/08 06:25:56;;;;;;;5.95;4.78;;;;;;;7.44;63.56;98925.52;1714448;83;21180;-77
2021/05/08 06:28:22;;;;;;;7.03;5.62;;;;;;;7.55;63.38;98928.34;1721478;83;21633;-77
2021/05/08 06:30:48;;;;;;;6.10;5.20;;;;;;;7.65;63.46;98926.32;1713377;83;21553;-73
2021/05/08 06:33:14;;;;;;;5.62;4.90;;;;;;;7.81;63.20;98930.73;1717682;83;21825;-75
2021/05/08 06:35:40;;;;;;;5.37;4.72;;;;;;;7.98;62.43;98936.86;1717762;83;21323;-75
2021/05/08 06:38:06;;;;;;;6.05;4.83;;;;;;;8.05;62.33;98936.13;1717445;83;21180;-75
2021/05/08 06:40:32;;;;;;;5.33;4.78;;;;;;;8.28;61.96;98933.23;1716934;83;21184;-72
2021/05/08 06:42:58;;;;;;;5.47;4.90;;;;;;;8.43;61.38;98940.34;1701417;83;21618;-73
2021/05/08 06:45:24;;;;;;;5.95;4.85;;;;;;;8.63;60.98;98932.14;1717250;83;21184;-73
2021/05/08 06:47:59;;;;;;;5.03;4.53;;;;;;;8.72;60.45;98932.38;1714441;83;21185;-78
2021/05/08 06:50:25;;;;;;;4.65;4.22;;;;;;;8.74;60.29;98946.32;1732679;80;21199;-77
2021/05/08 06:52:51;;;;;;;6.10;4.87;;;;;;;8.79;60.23;98941.32;1734163;81;21166;-73
2021/05/08 06:55:17;;;;;;;5.75;4.53;;;;;;;9.01;59.65;98936.02;1713106;82;21175;-72
2021/05/08 06:57:43;;;;;;;4.72;4.30;;;;;;;9.03;59.43;98937.19;1741169;81;21498;-76
2021/05/08 07:00:10;;;;;;;5.25;4.00;;;;;;;9.17;59.32;98933.77;1733102;81;21190;-72
2021/05/08 07:02:36;;;;;;;4.70;4.30;;;;;;;9.42;58.86;98934.42;1739040;82;21653;-77
2021/05/08 07:05:02;;;;;;;4.35;3.92;;;;;;;9.72;58.37;98926.73;1736261;80;21232;-73
2021/05/08 07:07:28;;;;;;;4.65;4.22;;;;;;;9.83;57.60;98925.98;1733995;82;21191;-75
2021/05/08 07:09:54;;;;;;;4.58;4.05;;;;;;;9.78;57.41;98925.77;1737612;82;21171;-75
2021/05/08 07:12:20;;;;;;;5.90;4.25;;;;;;;9.92;57.60;98933.91;1732510;82;21195;-75
2021/05/08 07:14:47;;;;;;;4.83;3.95;;;;;;;10.14;57.30;98929.86;1738025;82;21173;-75
2021/05/08 07:17:13;;;;;;;4.53;4.05;;;;;;;10.32;56.82;98930.66;1731342;82;21189;-75
2021/05/08 07:19:40;;;;;;;4.83;4.05;;;;;;;10.44;56.48;98936.27;1736500;82;21200;-74
2021/05/08 07:22:06;;;;;;;5.15;4.15;;;;;;;10.57;56.42;98936.64;1734986;82;21208;-72
2021/05/08 07:24:32;;;;;;;4.17;3.50;;;;;;;10.72;56.04;98940.09;1734891;82;21204;-75
2021/05/08 07:26:58;;;;;;;5.33;3.70;;;;;;;10.80;55.01;98935.63;1713082;82;21712;-72
2021/05/08 07:29:25;;;;;;;4.92;3.95;;;;;;;10.79;54.83;98943.56;1731269;82;21188;-75
2021/05/08 07:31:51;;;;;;;4.17;3.52;;;;;;;10.81;54.66;98939.88;1738656;81;21594;-74
2021/05/08 07:34:17;;;;;;;4.08;3.67;;;;;;;10.81;54.25;98949.39;1755960;81;21316;-76
2021/05/08 07:36:43;;;;;;;3.90;3.58;;;;;;;10.77;54.71;98935.03;1740688;81;21168;-72
2021/05/08 07:39:09;;;;;;;5.45;3.85;;;;;;;10.99;54.46;98941.76;1741806;82;21160;-74
2021/05/08 07:41:35;;;;;;;4.78;4.17;;;;;;;11.12;54.22;98944.23;1737285;82;21506;-73
2021/05/08 07:44:01;;;;;;;4.70;4.30;;;;;;;11.14;53.32;98947.94;1736829;82;21353;-73
2021/05/08 07:46:30;;;;;;;4.60;3.90;;;;;;;10.88;54.36;98941.23;1731326;82;21172;-76
2021/05/08 07:48:56;;;;;;;4.33;3.90;;;;;;;10.77;54.24;98947.84;1742004;82;21645;-75
2021/05/08 07:51:22;;;;;;;8.05;5.90;;;;;;;10.68;54.65;98951.56;1732327;82;21306;-72
2021/05/08 07:53:49;;;;;;;4.53;3.50;;;;;;;10.72;54.39;98940.89;1730803;82;21180;-72
2021/05/08 07:56:15;;;;;;;4.25;3.35;;;;;;;10.76;54.05;98949.79;1722320;83;21203;-74
2021/05/08 07:58:41;;;;;;;3.60;2.95;;;;;;;10.93;53.75;98947.41;1721997;82;21199;-73
2021/05/08 08:01:07;;;;;;;3.87;2.98;;;;;;;11.08;52.99;98953.00;1734472;82;21322;-74
2021/05/08 08:03:33;;;;;;;3.90;3.00;;;;;;;11.07;52.59;98954.16;1739490;82;21741;-73
2021/05/08 08:05:59;;;;;;;3.62;2.67;;;;;;;10.95;52.58;98954.01;1734834;82;21485;-75
2021/05/08 08:08:28;;;;;;;4.15;2.75;;;;;;;10.89;52.17;98967.81;1722780;83;21172;-74
2021/05/08 08:10:53;;;;;;;2.77;2.20;;;;;;;10.73;51.70;98956.59;1734291;82;21192;-74
2021/05/08 08:13:19;;;;;;;2.87;2.40;;;;;;;10.49;52.03;98961.66;1723246;83;21180;-73
2021/05/08 08:15:45;;;;;;;3.45;2.62;;;;;;;10.48;51.77;98961.48;1726942;82;21758;-74
2021/05/08 08:18:11;;;;;;;3.20;2.60;;;;;;;10.51;51.82;98960.70;1736622;82;21156;-74
2021/05/08 08:20:38;;;;;;;3.33;2.40;;;;;;;10.40;51.50;98959.35;1724841;81;21179;-76
2021/05/08 08:23:04;;;;;;;3.87;3.13;;;;;;;10.42;52.10;98967.09;1732025;81;21131;-75
2021/05/08 08:25:30;;;;;;;3.58;2.70;;;;;;;10.61;51.69;98961.27;1727202;82;21430;-74
2021/05/08 08:27:56;;;;;;;4.15;2.70;;;;;;;10.76;51.41;98973.47;1726388;82;21184;-74
2021/05/08 08:30:22;;;;;;;3.60;2.45;;;;;;;10.86;51.84;98969.95;1722800;83;21594;-71
2021/05/08 08:32:48;;;;;;;3.25;2.22;;;;;;;11.02;51.37;98966.22;1729873;82;21326;-75
2021/05/08 08:35:14;;;;;;;3.62;2.05;;;;;;;11.11;50.29;98971.23;1724280;82;21679;-72
2021/05/08 08:37:41;;;;;;;3.35;2.00;;;;;;;11.18;49.82;98969.06;1735832;82;21192;-75
2021/05/08 08:40:08;;;;;;;3.02;1.92;;;;;;;11.30;49.43;98976.21;1730125;82;21711;-73
2021/05/08 08:42:35;;;;;;;3.70;1.85;;;;;;;11.27;49.12;98984.39;1726606;82;21208;-73
2021/05/08 08:45:01;;;;;;;3.92;2.00;;;;;;;9.51;48.61;98706.53;1730282;82;21196;-75
2021/05/08 08:47:30;;;;;;;2.45;1.90;;;;;;;11.31;48.81;98985.14;1731168;82;21164;-73
2021/05/08 08:50:04;;;;;;;3.70;2.42;;;;;;;11.37;49.26;98975.39;1736851;81;21158;-71
2021/05/08 08:52:30;;;;;;;3.33;2.20;;;;;;;11.38;49.38;98974.83;1746991;80;21192;-73
2021/05/08 08:54:57;;;;;;;2.83;2.10;;;;;;;11.33;48.87;98981.44;1763790;80;21156;-72
2021/05/08 08:57:26;;;;;;;4.50;2.22;;;;;;;11.54;48.69;98968.34;1762484;80;21649;-74
2021/05/08 08:59:52;;;;;;;3.80;2.58;;;;;;;11.90;48.01;98972.24;1772465;80;21610;-71
2021/05/08 09:02:18;;;;;;;3.72;2.50;;;;;;;12.32;47.71;98977.94;1734005;82;21184;-72
2021/05/08 09:04:44;;;;;;;4.72;2.47;;;;;;;12.60;47.50;98976.94;1757760;80;21148;-73
2021/05/08 09:07:10;;;;;;;2.83;2.37;;;;;;;12.78;47.92;98982.20;1766204;80;21477;-72
2021/05/08 09:09:36;;;;;;;4.50;2.30;;;;;;;13.01;46.97;98979.42;1763404;80;21184;-74
2021/05/08 09:12:03;;;;;;;3.87;2.25;;;;;;;13.02;46.97;98980.99;1770018;80;21315;-72
2021/05/08 09:14:32;;;;;;;2.87;1.87;;;;;;;12.88;46.85;98975.88;1769850;80;21533;-73
2021/05/08 09:17:03;;;;;;;4.17;2.10;;;;;;;12.81;46.44;98970.48;1776414;80;21184;-73
2021/05/08 09:19:29;;;;;;;3.83;2.20;;;;;;;12.71;46.00;98984.22;1773643;80;21174;-72
2021/05/08 09:21:56;;;;;;;3.50;1.90;;;;;;;12.66;46.70;98984.09;1750767;80;21470;-71
2021/05/08 09:24:22;;;;;;;2.98;1.90;;;;;;;13.07;46.78;98984.64;1772259;80;21172;-75
2021/05/08 09:26:49;;;;;;;2.50;1.75;;;;;;;13.61;45.16;99006.59;1768907;80;21338;-73
2021/05/08 09:29:17;;;;;;;2.33;2.02;;;;;;;13.51;44.90;99002.84;1779061;80;21169;-74
2021/05/08 09:31:57;;;;;;;;;;;;;;;13.36;44.98;99015.09;1756909;80;21166;-76
2021/05/08 09:34:23;;;;;;;2.55;2.08;;;;;;;12.64;46.61;99020.48;1754121;81;20181;-73
2021/05/08 09:36:51;;;;;;;2.30;1.98;;;;;;;11.44;50.78;99031.70;1779237;80;21673;-72
2021/05/08 09:39:33;;;;;;;2.95;2.12;;;;;;;10.72;52.17;99026.45;1774503;80;21183;-72
2021/05/08 09:42:02;;;;;;;3.00;1.90;;;;;;;10.36;52.91;99021.59;1764446;80;21141;-74
2021/05/08 09:44:28;;;;;;;2.58;1.70;;;;;;;9.99;53.83;99030.24;1758227;80;21511;-70
2021/05/08 09:46:55;;;;;;;1.80;1.60;;;;;;;10.10;53.53;99011.86;1762823;80;21204;-72
2021/05/08 09:49:21;;;;;;;2.90;1.70;;;;;;;10.39;52.99;99009.39;1784625;80;21192;-72
2021/05/08 09:52:00;;;;;;;5.03;2.02;;;;;;;10.72;52.61;99010.70;1771351;80;21666;-72
2021/05/08 09:54:27;;;;;;;3.40;2.00;;;;;;;10.97;52.12;99010.10;1764362;80;21548;-74
2021/05/08 09:56:53;;;;;;;4.03;2.25;;;;;;;11.25;51.61;99009.23;1730991;80;21140;-72
2021/05/08 09:59:28;;;;;;;3.52;2.65;;;;;;;11.44;50.99;99005.88;1760025;80;21200;-72
2021/05/08 10:02:08;;;;;;;5.17;2.20;;;;;;;11.56;51.47;98999.98;1766524;80;21657;-71
2021/05/08 10:04:44;;;;;;;4.37;2.55;;;;;;;11.67;50.99;98997.97;1760753;80;21175;-71
2021/05/08 10:07:15;;;;;;;2.62;2.17;;;;;;;11.70;50.88;99002.65;1766892;80;21173;-73
2021/05/08 10:09:42;;;;;;;3.85;2.20;;;;;;;12.10;50.47;98996.98;1764665;80;21201;-74
2021/05/08 10:12:15;;;;;;;3.75;2.62;;;;;;;12.77;48.96;99009.28;1770422;80;21176;-73
2021/05/08 10:14:51;;;;;;;4.50;2.25;;;;;;;12.94;48.64;98990.42;1796666;79;22953;-72
2021/05/08 10:17:18;;;;;;;3.87;2.50;;;;;;;12.92;47.96;99005.81;1761990;81;21550;-74
2021/05/08 10:19:45;;;;;;;;;;;;;;;12.73;49.09;99001.71;1760452;81;21190;-70
2021/05/08 10:22:11;;;;;;;3.58;2.20;;;;;;;12.73;48.81;98992.77;1765284;80;20514;-76
2021/05/08 10:24:39;;;;;;;3.13;2.37;;;;;;;12.61;49.08;98996.78;1770085;80;21174;-73
2021/05/08 10:27:06;;;;;;;4.28;2.60;;;;;;;12.72;49.37;99001.53;1758741;81;21645;-71
2021/05/08 10:29:33;;;;;;;3.10;2.52;;;;;;;12.69;49.23;98991.45;1760785;81;21186;-71
2021/05/08 10:32:00;;;;;;;3.90;2.60;;;;;;;12.83;49.00;99000.84;1753729;81;21189;-72
2021/05/08 10:35:02;;;;;;;3.72;2.60;;;;;;;12.86;48.06;98992.45;1758625;81;21163;-71
2021/05/08 10:37:23;;;;;;;3.45;2.20;;;;;;;13.09;47.22;98985.78;1759366;81;21179;-73
2021/05/08 10:40:03;;;;;;;2.80;2.00;;;;;;;13.68;46.79;99005.16;1760031;81;21765;-72
2021/05/08 10:42:43;;;;;;;4.03;1.80;;;;;;;13.83;44.07;98995.40;1756220;81;21166;-72
2021/05/08 10:45:19;;;;;;;4.25;1.95;;;;;;;13.42;44.38;99003.14;1761253;81;21155;-72
2021/05/08 10:48:03;;;;;;;3.12;1.90;;;;;;;12.90;45.23;99004.08;1768808;80;21481;-74
2021/05/08 10:50:36;;;;;;;3.85;2.15;;;;;;;12.55;46.02;98988.27;1759166;80;21168;-73
2021/05/08 10:53:14;;;;;;;2.45;2.00;;;;;;;12.31;46.61;98990.02;1749339;81;21232;-72
2021/05/08 10:55:57;;;;;;;2.20;1.80;;;;;;;12.31;48.18;98987.30;1763175;80;21177;-74
2021/05/08 10:58:28;;;;;;;3.00;2.17;;;;;;;12.43;46.37;98986.80;1760719;80;21148;-73
2021/05/08 11:01:05;;;;;;;3.60;2.55;;;;;;;12.51;45.79;98988.11;1760381;81;21172;-75
2021/05/08 11:03:35;;;;;;;3.05;2.00;;;;;;;12.64;46.57;98985.84;1761437;81;22326;-75
2021/05/08 11:06:16;;;;;;;3.85;2.00;;;;;;;12.93;45.79;98991.59;1759269;81;21182;-72
2021/05/08 11:08:43;;;;;;;3.75;2.20;;;;;;;13.14;45.82;98983.77;1755356;81;21494;-75
2021/05/08 11:11:11;;;;;;;4.75;2.42;;;;;;;13.28;45.67;98985.77;1757288;81;21175;-73
2021/05/08 11:13:44;;;;;;;3.60;2.37;;;;;;;13.21;46.76;98985.06;1755711;81;21579;-73
2021/05/08 11:16:19;;;;;;;4.45;2.30;;;;;;;13.39;46.04;98995.78;1740819;82;21182;-77
2021/05/08 11:18:46;;;;;;;2.90;1.90;;;;;;;13.39;45.93;98993.81;1740967;82;21170;-72
2021/05/08 11:21:17;;;;;;;3.25;2.00;;;;;;;13.58;45.35;98984.23;1741016;82;21181;-73
2021/05/08 11:23:59;;;;;;;3.87;2.27;;;;;;;13.82;44.10;98987.04;1741085;82;21170;-73
2021/05/08 11:26:28;;;;;;;3.77;2.08;;;;;;;14.06;43.51;98984.53;1740023;82;21198;-74
2021/05/08 11:29:00;;;;;;;4.37;2.20;;;;;;;14.29;42.90;98998.80;1740130;82;21186;-71
2021/05/08 11:31:27;;;;;;;4.00;2.47;;;;;;;14.23;42.45;99001.83;1740028;82;21165;-72
2021/05/08 11:34:08;;;;;;;3.58;2.40;;;;;;;14.24;42.78;98998.50;1740038;82;21174;-74
2021/05/08 11:36:51;;;;;;;4.62;2.50;;;;;;;14.47;42.77;99003.23;1740477;82;21177;-72
2021/05/08 11:39:20;;;;;;;3.05;2.30;;;;;;;14.33;42.96;99012.42;1739815;82;21216;-71
2021/05/08 11:41:48;;;;;;;2.70;1.80;;;;;;;13.82;43.03;99015.10;1739829;82;21693;-73